Time;durP1;ratioP1;P1;durP2;ratioP2;P2;SDS_P1;SDS_P2;PMS_P1;PMS_P2;Temp;Humidity;BMP_temperature;BMP_pressure;BME280_temperature;BME280_humidity;BME280_pressure;Samples;Min_cycle;Max_cycle;Signal;HPM_P1;HPM_P2
2023/07/07 00:01:50;;;;;;;5.18;2.47;;;;;;;;;;5060770;28;20494;-71
2023/07/07 00:04:17;;;;;;;4.07;2.17;;;11.90;99.90;;;;;;5068961;28;20044;-70
2023/07/07 00:06:43;;;;;;;3.03;2.33;;;;;;;;;;5068972;28;20375;-70
2023/07/07 00:09:09;;;;;;;2.60;2.20;;;;;;;;;;5056297;28;20048;-70
2023/07/07 00:11:35;;;;;;;2.88;2.30;;;11.40;99.90;;;;;;5064855;28;20052;-70
2023/07/07 00:14:01;;;;;;;2.67;1.55;;;11.50;99.90;;;;;;5060155;28;20051;-70
2023/07/07 00:16:30;;;;;;;4.40;2.47;;;;;;;;;;5052366;28;20762;-70
2023/07/07 00:18:56;;;;;;;3.15;1.90;;;11.50;99.90;;;;;;5055094;28;20041;-70
2023/07/07 00:21:24;;;;;;;3.72;2.20;;;11.60;99.90;;;;;;5053564;28;20037;-70
2023/07/07 00:23:53;;;;;;;4.13;2.30;;;;;;;;;;5063109;28;20068;-71
2023/07/07 00:26:19;;;;;;;2.50;1.98;;;;;;;;;;5066973;28;20506;-70
2023/07/07 00:28:45;;;;;;;3.55;2.20;;;11.70;99.90;;;;;;5051891;28;20048;-70
2023/07/07 00:31:10;;;;;;;4.15;2.63;;;11.60;99.90;;;;;;5054672;28;20051;-70
2023/07/07 00:33:36;;;;;;;3.72;1.90;;;11.60;99.90;;;;;;5066823;28;20037;-70
2023/07/07 00:36:02;;;;;;;3.80;2.05;;;;;;;;;;5057872;28;20448;-70
2023/07/07 00:38:28;;;;;;;2.15;1.88;;;;;;;;;;5066159;28;20132;-71
2023/07/07 00:40:54;;;;;;;3.92;2.30;;;;;;;;;;5069462;28;20540;-70
2023/07/07 00:43:20;;;;;;;3.80;2.55;;;11.50;99.90;;;;;;5061617;28;20048;-70
2023/07/07 00:45:46;;;;;;;6.47;2.50;;;;;;;;;;5066957;28;20097;-70
2023/07/07 00:48:19;;;;;;;3.45;2.42;;;11.40;99.90;;;;;;5063708;28;20071;-70
2023/07/07 00:51:25;;;;;;;4.45;2.78;;;11.30;99.90;;;;;;5059888;28;20556;-70
2023/07/07 00:53:52;;;;;;;5.00;1.73;;;11.00;99.90;;;;;;5040410;28;20053;-70
2023/07/07 00:56:38;;;;;;;2.80;2.15;;;11.10;99.90;;;;;;5060007;28;20044;-70
2023/07/07 00:59:05;;;;;;;4.55;2.05;;;;;;;;;;5062390;28;20032;-70
2023/07/07 01:01:31;;;;;;;4.30;2.63;;;11.00;99.90;;;;;;5066145;28;20123;-70
2023/07/07 01:04:00;;;;;;;5.65;2.45;;;;;;;;;;5066462;28;20111;-70
2023/07/07 01:06:31;;;;;;;4.88;2.33;;;11.10;99.90;;;;;;5054264;28;20060;-70
2023/07/07 01:09:06;;;;;;;4.65;2.38;;;11.10;99.90;;;;;;5066426;28;20044;-70
2023/07/07 01:11:33;;;;;;;3.95;2.25;;;;;;;;;;5066292;28;20086;-70
2023/07/07 01:14:01;;;;;;;6.47;2.97;;;11.00;99.90;;;;;;5057955;28;20198;-70
2023/07/07 01:16:35;;;;;;;4.03;2.78;;;10.90;99.90;;;;;;5061358;28;20044;-70
2023/07/07 01:19:15;;;;;;;5.90;2.85;;;;;;;;;;5059409;28;20041;-70
2023/07/07 01:22:18;;;;;;;3.95;3.20;;;10.90;99.90;;;;;;5066156;28;20048;-71
2023/07/07 01:25:17;;;;;;;4.35;3.33;;;11.30;99.90;;;;;;5060979;28;20044;-69
2023/07/07 01:28:32;;;;;;;3.83;2.80;;;11.20;99.90;;;;;;5054113;28;20785;-69
2023/07/07 01:31:21;;;;;;;4.18;2.47;;;;;;;;;;4964564;28;20085;-70
2023/07/07 01:33:47;;;;;;;4.45;2.60;;;;;;;;;;4964182;28;20074;-70
2023/07/07 01:36:13;;;;;;;3.72;3.20;;;;;;;;;;5035353;28;20676;-70
2023/07/07 01:38:41;;;;;;;4.22;3.17;;;;;;;;;;5049621;28;20519;-70
2023/07/07 01:41:33;;;;;;;6.40;4.25;;;11.40;99.90;;;;;;5054465;28;20045;-70
2023/07/07 01:44:23;;;;;;;8.02;4.82;;;11.70;99.90;;;;;;5066174;28;20047;-70
2023/07/07 01:46:56;;;;;;;10.13;5.55;;;;;;;;;;5042531;28;20044;-69
2023/07/07 01:49:30;;;;;;;10.32;5.85;;;12.20;99.90;;;;;;5053424;28;20044;-69
2023/07/07 01:52:06;;;;;;;8.80;5.03;;;;;;;;;;5056171;28;20041;-69
2023/07/07 01:54:34;;;;;;;8.98;5.75;;;12.30;99.90;;;;;;5063330;28;20044;-70
2023/07/07 01:57:01;;;;;;;9.90;6.32;;;;;;;;;;5070064;28;20033;-70
2023/07/07 01:59:27;;;;;;;8.95;6.38;;;;;;;;;;5063384;28;20221;-71
2023/07/07 02:01:53;;;;;;;9.27;5.97;;;;;;;;;;5062680;28;20041;-70
2023/07/07 02:04:19;;;;;;;10.50;5.78;;;;;;;;;;5070146;28;20055;-69
2023/07/07 02:06:45;;;;;;;11.73;6.35;;;;;;;;;;5062645;28;20048;-71
2023/07/07 02:09:10;;;;;;;9.95;6.50;;;12.50;99.90;;;;;;5064378;28;20529;-69
2023/07/07 02:11:36;;;;;;;11.32;7.60;;;;;;;;;;5069248;28;20056;-69
2023/07/07 02:14:02;;;;;;;11.57;8.50;;;;;;;;;;5069493;28;20079;-70
2023/07/07 02:16:28;;;;;;;13.68;8.13;;;12.80;99.90;;;;;;5056131;28;20044;-69
2023/07/07 02:18:53;;;;;;;13.30;8.43;;;12.80;99.90;;;;;;5069908;28;20035;-70
2023/07/07 02:21:19;;;;;;;10.50;8.40;;;;;;;;;;5061046;28;20131;-70
2023/07/07 02:23:46;;;;;;;14.55;8.88;;;;;;;;;;5056584;28;20051;-69
2023/07/07 02:26:13;;;;;;;16.83;10.32;;;;;;;;;;5045183;28;20055;-71
2023/07/07 02:28:40;;;;;;;15.48;9.82;;;;;;;;;;5068947;28;20788;-70
2023/07/07 02:31:06;;;;;;;16.10;10.48;;;13.00;99.90;;;;;;5069001;28;20067;-70
2023/07/07 02:33:32;;;;;;;15.23;9.20;;;;;;;;;;5060589;28;20041;-70
2023/07/07 02:36:02;;;;;;;18.02;10.75;;;;;;;;;;5067859;28;20040;-70
2023/07/07 02:38:29;;;;;;;17.75;10.00;;;13.00;99.90;;;;;;5051714;28;20055;-70
2023/07/07 02:40:55;;;;;;;18.17;9.75;;;;;;;;;;5068737;28;20627;-70
2023/07/07 02:43:21;;;;;;;15.50;10.82;;;;;;;;;;5059464;28;20048;-70
2023/07/07 02:45:47;;;;;;;16.67;11.40;;;;;;;;;;5049197;28;20126;-70
2023/07/07 02:48:13;;;;;;;13.73;11.05;;;13.30;99.90;;;;;;5060460;28;20052;-70
2023/07/07 02:50:39;;;;;;;15.38;11.27;;;13.30;99.90;;;;;;5068593;28;20040;-70
2023/07/07 02:53:05;;;;;;;20.70;9.63;;;;;;;;;;5139225;22;20521;-69
2023/07/07 02:55:31;;;;;;;14.32;10.35;;;;;;;;;;5044163;28;20095;-69
2023/07/07 02:57:57;;;;;;;17.13;11.77;;;;;;;;;;5039280;28;20044;-69
2023/07/07 03:00:24;;;;;;;17.88;12.35;;;13.20;99.90;;;;;;5041979;28;20041;-70
2023/07/07 03:02:50;;;;;;;19.48;11.30;;;;;;;;;;5043253;28;20068;-69
2023/07/07 03:05:16;;;;;;;20.75;13.27;;;;;;;;;;5038759;28;20057;-69
2023/07/07 03:07:42;;;;;;;18.33;11.93;;;;;;;;;;5038674;28;20935;-69
2023/07/07 03:10:08;;;;;;;18.70;12.90;;;13.80;99.90;;;;;;5039307;28;20067;-70
2023/07/07 03:12:34;;;;;;;19.70;12.48;;;13.20;99.90;;;;;;5042539;28;20048;-70
2023/07/07 03:15:00;;;;;;;15.70;12.10;;;13.30;99.90;;;;;;5043569;28;20407;-70
2023/07/07 03:17:26;;;;;;;20.95;13.50;;;;;;;;;;5044055;28;20040;-69
2023/07/07 03:19:52;;;;;;;20.60;12.70;;;;;;;;;;5044797;28;20055;-70
2023/07/07 03:22:18;;;;;;;23.80;13.70;;;;;;;;;;5045529;28;20063;-70
2023/07/07 03:24:44;;;;;;;19.23;13.07;;;;;;;;;;5045167;28;20052;-70
2023/07/07 03:27:09;;;;;;;19.40;12.77;;;13.30;99.90;;;;;;5040270;28;20044;-69
2023/07/07 03:29:35;;;;;;;23.08;12.85;;;;;;;;;;5043872;28;20045;-70
2023/07/07 03:32:01;;;;;;;20.42;13.73;;;;;;;;;;5039880;28;20081;-69
2023/07/07 03:34:27;;;;;;;22.70;13.43;;;;;;;;;;5044469;28;20090;-69
2023/07/07 03:36:53;;;;;;;20.98;14.70;;;;;;;;;;5037952;28;20576;-69
2023/07/07 03:39:19;;;;;;;22.83;14.93;;;;;;;;;;5042853;28;20102;-69
2023/07/07 03:41:44;;;;;;;20.30;14.13;;;13.30;99.90;;;;;;5043176;28;20047;-69
2023/07/07 03:44:10;;;;;;;25.70;14.63;;;13.40;99.90;;;;;;5043602;28;20048;-69
2023/07/07 03:46:36;;;;;;;17.95;12.50;;;;;;;;;;5042731;28;20764;-69
2023/07/07 03:49:03;;;;;;;24.60;14.32;;;;;;;;;;5043094;28;20044;-69
2023/07/07 03:51:34;;;;;;;21.60;14.70;;;;;;;;;;5043646;28;20044;-69
2023/07/07 03:54:00;;;;;;;23.60;14.55;;;13.30;99.90;;;;;;5042352;28;20053;-69
2023/07/07 03:56:26;;;;;;;22.20;15.98;;;;;;;;;;5045224;28;20037;-69
2023/07/07 03:58:52;;;;;;;21.20;13.98;;;;;;;;;;5040996;28;20037;-69
2023/07/07 04:01:18;;;;;;;26.75;16.35;;;;;;;;;;5044554;28;20051;-69
2023/07/07 04:03:46;;;;;;;22.20;15.23;;;13.40;99.90;;;;;;5043435;28;20037;-70
2023/07/07 04:06:13;;;;;;;29.70;15.10;;;;;;;;;;5044727;28;20055;-69
2023/07/07 04:08:39;;;;;;;23.42;15.35;;;;;;;;;;5041088;28;20041;-69
2023/07/07 04:11:06;;;;;;;24.17;15.50;;;;;;;;;;5031953;28;20052;-69
2023/07/07 04:13:34;;;;;;;23.63;14.60;;;;;;;;;;5040414;28;20414;-69
2023/07/07 04:16:03;;;;;;;26.08;16.15;;;;;;;;;;5043523;28;20106;-69
2023/07/07 04:18:31;;;;;;;23.98;16.35;;;;;;;;;;5040686;28;20044;-69
2023/07/07 04:21:01;;;;;;;23.98;16.35;;;;;;;;;;5042245;28;20719;-69
2023/07/07 04:23:27;;;;;;;24.27;16.83;;;;;;;;;;5044305;28;20874;-69
2023/07/07 04:25:53;;;;;;;24.13;15.82;;;;;;;;;;5042886;28;20755;-69
2023/07/07 04:28:19;;;;;;;21.45;16.67;;;;;;;;;;5038586;28;20765;-69
2023/07/07 04:30:50;;;;;;;24.38;16.40;;;;;;;;;;5035483;28;20048;-69
2023/07/07 04:33:15;;;;;;;25.65;15.85;;;13.60;99.90;;;;;;5043128;28;20124;-69
2023/07/07 04:35:41;;;;;;;30.80;16.52;;;13.80;99.90;;;;;;5040411;28;20049;-69
2023/07/07 04:38:07;;;;;;;27.73;17.08;;;;;;;;;;5042769;28;20040;-69
2023/07/07 04:40:33;;;;;;;21.05;15.27;;;;;;;;;;5042180;28;20045;-69
2023/07/07 04:42:59;;;;;;;20.73;15.65;;;;;;;;;;5045979;28;20136;-69
2023/07/07 04:45:25;;;;;;;23.45;15.48;;;;;;;;;;5040942;28;20050;-69
2023/07/07 04:47:50;;;;;;;20.13;14.55;;;13.90;99.90;;;;;;5039322;28;20066;-69
2023/07/07 04:50:16;;;;;;;23.08;16.05;;;;;;;;;;5039760;28;20049;-69
2023/07/07 04:52:42;;;;;;;21.42;16.23;;;;;;;;;;5041703;28;20060;-69
2023/07/07 04:55:09;;;;;;;23.13;16.25;;;;;;;;;;5039618;28;20145;-69
2023/07/07 04:57:35;;;;;;;23.45;16.23;;;;;;;;;;5040995;28;20056;-69
2023/07/07 05:00:05;;;;;;;21.20;16.45;;;;;;;;;;5041992;28;20029;-69
2023/07/07 05:02:33;;;;;;;19.15;15.02;;;14.90;99.90;;;;;;5042735;28;20072;-69
2023/07/07 05:04:59;;;;;;;22.67;14.73;;;;;;;;;;5039220;28;20551;-69
2023/07/07 05:07:27;;;;;;;19.27;13.65;;;15.40;99.90;;;;;;5035616;28;20135;-69
2023/07/07 05:09:52;;;;;;;17.25;13.68;;;15.60;99.90;;;;;;5040389;28;20037;-69
2023/07/07 05:12:19;;;;;;;17.52;11.13;;;15.90;99.90;;;;;;5041579;28;20095;-70
2023/07/07 05:14:45;;;;;;;21.23;12.82;;;;;;;;;;5038952;28;20053;-70
2023/07/07 05:17:11;;;;;;;17.50;12.45;;;;;;;;;;5039460;28;20050;-70
2023/07/07 05:19:36;;;;;;;15.38;12.70;;;16.10;99.90;;;;;;5040137;28;20049;-69
2023/07/07 05:22:02;;;;;;;21.08;12.93;;;16.00;99.90;;;;;;5040693;28;20045;-69
2023/07/07 05:24:28;;;;;;;17.60;12.05;;;;;;;;;;5044350;28;20044;-69
2023/07/07 05:26:54;;;;;;;17.33;12.32;;;;;;;;;;5038737;28;20049;-70
2023/07/07 05:29:21;;;;;;;13.75;11.35;;;;;;;;;;5045345;28;20053;-69
2023/07/07 05:31:47;;;;;;;17.73;11.95;;;16.90;99.90;;;;;;5044581;28;20037;-69
2023/07/07 05:34:13;;;;;;;17.73;11.57;;;;;;;;;;5048107;28;20048;-69
2023/07/07 05:36:39;;;;;;;16.10;11.15;;;;;;;;;;5043911;28;20049;-70
2023/07/07 05:39:06;;;;;;;15.98;11.45;;;;;;;;;;5043505;28;20521;-69
2023/07/07 05:41:32;;;;;;;12.60;10.38;;;17.50;99.90;;;;;;5041786;28;20068;-69
2023/07/07 05:43:58;;;;;;;14.27;10.65;;;;;;;;;;5046837;28;20079;-69
2023/07/07 05:46:24;;;;;;;15.52;10.38;;;;;;;;;;5040903;28;20072;-70
2023/07/07 05:48:50;;;;;;;13.48;9.55;;;;;;;;;;5041951;28;20049;-71
2023/07/07 05:51:18;;;;;;;12.50;9.32;;;19.60;99.90;;;;;;5042710;28;20848;-69
2023/07/07 05:53:43;;;;;;;16.02;8.98;;;20.10;99.90;;;;;;5061707;28;20067;-69
2023/07/07 05:56:22;;;;;;;13.38;9.07;;;20.50;99.90;;;;;;5059345;28;20052;-69
2023/07/07 05:58:49;;;;;;;12.70;8.98;;;20.80;99.90;;;;;;5063626;28;20033;-69
2023/07/07 06:01:15;;;;;;;12.57;8.02;;;;;;;;;;5065465;28;20110;-69
2023/07/07 06:03:41;;;;;;;13.15;8.07;;;21.60;99.90;;;;;;5065348;28;20437;-69
2023/07/07 06:06:08;;;;;;;15.63;8.10;;;22.00;99.90;;;;;;5045327;28;20105;-70
2023/07/07 06:08:33;;;;;;;12.93;8.13;;;22.50;99.90;;;;;;5061258;28;20037;-69
2023/07/07 06:10:59;;;;;;;12.05;7.75;;;22.60;99.90;;;;;;5052968;28;20634;-70
2023/07/07 06:13:25;;;;;;;11.65;7.60;;;24.70;99.90;;;;;;5059922;28;20770;-70
2023/07/07 06:15:52;;;;;;;10.45;6.82;;;23.20;99.90;;;;;;5054388;28;20032;-70
2023/07/07 06:18:18;;;;;;;10.65;7.10;;;23.50;99.90;;;;;;5058969;28;20033;-69
2023/07/07 06:20:52;;;;;;;9.60;6.57;;;23.60;99.90;;;;;;5042437;28;20035;-70
2023/07/07 06:23:19;;;;;;;10.43;6.35;;;23.60;99.90;;;;;;5044316;28;20040;-69
2023/07/07 06:25:44;;;;;;;9.93;7.03;;;23.80;99.90;;;;;;5063016;28;20078;-70
2023/07/07 06:28:10;;;;;;;11.40;7.00;;;24.10;99.90;;;;;;5042473;28;20044;-69
2023/07/07 06:30:35;;;;;;;11.20;6.63;;;24.10;99.90;;;;;;5044422;28;20464;-70
2023/07/07 06:33:02;;;;;;;10.68;5.65;;;26.00;99.90;;;;;;5042227;28;20120;-69
2023/07/07 06:35:28;;;;;;;11.15;6.22;;;24.90;99.90;;;;;;5039037;28;20076;-69
2023/07/07 06:37:54;;;;;;;9.23;5.55;;;25.00;99.90;;;;;;5056805;28;20064;-70
2023/07/07 06:40:19;;;;;;;10.00;5.82;;;25.40;99.90;;;;;;5044445;28;20153;-69
2023/07/07 06:42:45;;;;;;;8.00;5.20;;;24.70;99.90;;;;;;5034464;28;20056;-70
2023/07/07 06:45:10;;;;;;;9.23;5.03;;;23.90;99.90;;;;;;5066551;28;20040;-70
2023/07/07 06:47:36;;;;;;;9.85;5.40;;;23.20;99.90;;;;;;5043010;28;20048;-69
2023/07/07 06:50:02;;;;;;;10.68;4.82;;;22.70;99.90;;;;;;5056347;28;20052;-69
2023/07/07 06:52:28;;;;;;;9.35;5.47;;;22.10;99.90;;;;;;5061613;28;20411;-69
2023/07/07 06:54:55;;;;;;;8.32;5.60;;;21.70;99.90;;;;;;5044139;28;20174;-70
2023/07/07 06:57:21;;;;;;;7.00;5.07;;;21.00;99.90;;;;;;5053931;28;20058;-69
2023/07/07 06:59:46;;;;;;;9.85;4.70;;;20.70;99.90;;;;;;5057108;28;20055;-69
2023/07/07 07:02:13;;;;;;;9.15;5.20;;;20.60;99.90;;;;;;5044671;28;20044;-70
2023/07/07 07:04:39;;;;;;;9.80;4.85;;;20.50;99.90;;;;;;5062163;28;20048;-71
2023/07/07 07:07:07;;;;;;;7.97;4.43;;;20.50;99.90;;;;;;5058203;28;20032;-68
2023/07/07 07:09:33;;;;;;;12.48;5.28;;;20.40;99.90;;;;;;5038487;28;20071;-68
2023/07/07 07:11:58;;;;;;;6.95;4.60;;;20.30;99.90;;;;;;5078447;28;20068;-70
2023/07/07 07:14:24;;;;;;;6.30;4.35;;;20.40;99.90;;;;;;5050090;28;20080;-70
2023/07/07 07:16:49;;;;;;;12.45;4.40;;;20.30;99.90;;;;;;5047061;28;20043;-69
2023/07/07 07:19:15;;;;;;;9.77;4.70;;;20.40;99.90;;;;;;5058998;28;20041;-69
2023/07/07 07:21:41;;;;;;;7.63;4.57;;;20.50;99.90;;;;;;5044777;28;20047;-70
2023/07/07 07:24:06;;;;;;;7.30;4.30;;;20.50;99.90;;;;;;5044223;28;20149;-70
2023/07/07 07:26:32;;;;;;;6.38;3.53;;;20.50;99.90;;;;;;5058454;28;20786;-69
2023/07/07 07:28:57;;;;;;;5.45;3.53;;;20.50;99.90;;;;;;5041231;28;20754;-69
2023/07/07 07:31:23;;;;;;;7.80;3.50;;;;;;;;;;5057801;28;20072;-69
2023/07/07 07:33:51;;;;;;;7.65;3.92;;;20.60;99.90;;;;;;5058997;28;20032;-70
2023/07/07 07:36:17;;;;;;;5.00;2.83;;;20.70;99.90;;;;;;5051565;28;20453;-69
2023/07/07 07:38:42;;;;;;;7.22;2.60;;;20.70;99.90;;;;;;5045476;28;20101;-69
2023/07/07 07:41:08;;;;;;;5.75;3.38;;;20.60;99.90;;;;;;5048211;28;20043;-69
2023/07/07 07:43:34;;;;;;;4.95;2.67;;;20.70;99.90;;;;;;5062222;28;20526;-69
2023/07/07 07:45:59;;;;;;;5.38;2.90;;;20.70;99.90;;;;;;5064891;28;20379;-69
2023/07/07 07:48:25;;;;;;;6.63;2.53;;;20.70;99.90;;;;;;5049214;28;20477;-69
2023/07/07 07:50:51;;;;;;;5.95;2.75;;;20.70;99.90;;;;;;5067590;28;20040;-69
2023/07/07 07:53:16;;;;;;;6.35;2.75;;;21.00;99.90;;;;;;5063064;28;20211;-69
2023/07/07 07:55:42;;;;;;;4.65;2.78;;;20.90;99.90;;;;;;5043546;28;20044;-69
2023/07/07 07:58:07;;;;;;;10.15;2.90;;;20.80;99.90;;;;;;5043703;28;20040;-69
2023/07/07 08:00:33;;;;;;;4.75;2.85;;;20.90;99.90;;;;;;5063064;28;20094;-69
2023/07/07 08:02:58;;;;;;;5.63;2.70;;;21.00;99.90;;;;;;5062216;28;20044;-69
2023/07/07 08:05:24;;;;;;;7.95;2.58;;;21.20;99.90;;;;;;5062140;28;20076;-71
2023/07/07 08:07:50;;;;;;;5.57;2.72;;;21.30;99.90;;;;;;5039580;28;20044;-70
2023/07/07 08:10:15;;;;;;;6.15;2.67;;;21.50;99.90;;;;;;5049893;28;20055;-70
2023/07/07 08:12:41;;;;;;;4.85;2.10;;;21.50;99.90;;;;;;5064311;28;20045;-68
2023/07/07 08:15:09;;;;;;;7.25;2.80;;;21.50;99.90;;;;;;5065098;28;20032;-68
2023/07/07 08:17:35;;;;;;;6.82;2.45;;;21.50;99.90;;;;;;5040353;28;20080;-68
2023/07/07 08:20:00;;;;;;;3.55;1.75;;;21.40;99.90;;;;;;5063658;28;20068;-68
2023/07/07 08:22:26;;;;;;;6.65;2.42;;;21.40;99.90;;;;;;5043504;28;20146;-68
2023/07/07 08:24:54;;;;;;;12.32;3.92;;;21.50;99.90;;;;;;5053357;28;20040;-68
2023/07/07 08:27:22;;;;;;;5.03;2.55;;;21.60;99.90;;;;;;5061667;28;20055;-68
2023/07/07 08:29:48;;;;;;;5.20;2.00;;;21.80;99.90;;;;;;5058509;28;20064;-68
2023/07/07 08:32:21;;;;;;;6.95;2.35;;;21.70;99.90;;;;;;5043596;28;20225;-68
2023/07/07 08:34:47;;;;;;;4.20;1.50;;;21.90;99.90;;;;;;5064526;28;20048;-68
2023/07/07 08:37:15;;;;;;;4.15;1.95;;;21.90;99.90;;;;;;5065375;28;20039;-68
2023/07/07 08:39:41;;;;;;;11.35;3.53;;;21.90;99.90;;;;;;5062527;28;20133;-68
2023/07/07 08:42:23;;;;;;;12.25;3.97;;;21.90;99.90;;;;;;5065818;28;20121;-68
2023/07/07 08:44:49;;;;;;;12.13;3.92;;;22.10;99.90;;;;;;5046622;28;20045;-68
2023/07/07 08:47:49;;;;;;;12.35;4.18;;;22.30;99.90;;;;;;5058796;28;20525;-68
2023/07/07 08:50:23;;;;;;;8.18;2.10;;;22.10;99.90;;;;;;5057513;28;20050;-68
2023/07/07 08:52:54;;;;;;;3.88;1.83;;;22.30;99.90;;;;;;5040250;28;20509;-68
2023/07/07 08:55:43;;;;;;;5.57;1.75;;;22.30;99.90;;;;;;5039013;28;20053;-68
2023/07/07 08:58:22;;;;;;;5.47;2.30;;;22.40;99.90;;;;;;5062205;28;20040;-68
2023/07/07 09:00:54;;;;;;;6.05;2.30;;;22.20;99.90;;;;;;5050165;28;20033;-68
2023/07/07 09:03:55;;;;;;;5.55;1.80;;;22.60;99.90;;;;;;5041924;28;20037;-68
2023/07/07 09:06:46;;;;;;;3.30;1.55;;;22.40;99.90;;;;;;5056328;28;20391;-68
2023/07/07 09:09:44;;;;;;;3.70;1.80;;;22.70;99.90;;;;;;5030285;28;20082;-68
2023/07/07 09:12:42;;;;;;;4.22;1.58;;;23.00;99.90;;;;;;5055142;28;20051;-68
2023/07/07 09:15:17;;;;;;;5.50;1.40;;;22.70;99.90;;;;;;5026137;28;20072;-68
2023/07/07 09:17:48;;;;;;;3.75;1.38;;;22.90;99.90;;;;;;5061240;28;20048;-68
2023/07/07 09:20:15;;;;;;;2.88;1.20;;;23.00;99.90;;;;;;5060389;28;20507;-68
2023/07/07 09:22:55;;;;;;;5.72;1.77;;;23.20;99.90;;;;;;5056193;28;20490;-68
2023/07/07 09:25:33;;;;;;;3.63;1.25;;;22.90;99.90;;;;;;5042655;28;20510;-68
2023/07/07 09:28:03;;;;;;;5.28;1.63;;;23.10;99.90;;;;;;5046080;28;20123;-68
2023/07/07 09:30:52;;;;;;;5.68;2.33;;;23.40;99.90;;;;;;5055601;28;20044;-68
2023/07/07 09:33:20;;;;;;;3.75;1.40;;;23.20;99.90;;;;;;5040058;28;20125;-68
2023/07/07 09:36:01;;;;;;;3.42;1.40;;;23.40;99.90;;;;;;5058836;28;20675;-68
2023/07/07 09:38:43;;;;;;;5.07;1.30;;;23.40;99.90;;;;;;5055157;28;20575;-68
2023/07/07 09:41:15;;;;;;;4.55;1.63;;;23.50;99.90;;;;;;5056518;28;20174;-68
2023/07/07 09:44:24;;;;;;;3.25;1.58;;;23.30;99.90;;;;;;5043296;28;20123;-68
2023/07/07 09:46:54;;;;;;;4.85;1.55;;;23.70;99.90;;;;;;5062080;28;20051;-68
2023/07/07 09:49:26;;;;;;;5.43;1.70;;;23.50;99.90;;;;;;5042449;28;20058;-68
2023/07/07 09:51:58;;;;;;;5.72;1.52;;;23.40;99.90;;;;;;5039473;28;20097;-69
2023/07/07 09:54:24;;;;;;;3.63;1.60;;;23.60;99.90;;;;;;5047975;28;20052;-68
2023/07/07 09:57:11;;;;;;;3.92;1.90;;;23.70;99.90;;;;;;5064641;28;20043;-68
2023/07/07 09:59:41;;;;;;;6.05;1.40;;;23.50;99.90;;;;;;5066605;28;20493;-68
2023/07/07 10:02:16;;;;;;;3.40;1.20;;;23.90;99.90;;;;;;5064686;28;20545;-69
2023/07/07 10:04:48;;;;;;;6.55;1.40;;;23.70;99.90;;;;;;5046794;28;20058;-68
2023/07/07 10:07:16;;;;;;;3.33;1.40;;;23.90;99.90;;;;;;5065914;28;20492;-68
2023/07/07 10:09:43;;;;;;;6.28;1.55;;;24.10;99.90;;;;;;5062190;28;20125;-68
2023/07/07 10:12:13;;;;;;;4.53;1.60;;;23.90;99.90;;;;;;5061838;28;20106;-68
2023/07/07 10:14:39;;;;;;;3.13;1.70;;;24.10;99.90;;;;;;5060093;28;20067;-68
2023/07/07 10:17:08;;;;;;;3.97;1.90;;;23.90;99.90;;;;;;5061350;28;20495;-68
2023/07/07 10:19:52;;;;;;;5.90;1.60;;;24.00;99.90;;;;;;5048325;28;20139;-68
2023/07/07 10:22:19;;;;;;;6.22;1.52;;;24.00;99.90;;;;;;5066927;28;20097;-68
2023/07/07 10:24:44;;;;;;;4.70;1.50;;;24.20;99.90;;;;;;5068088;28;20045;-68
2023/07/07 10:27:14;;;;;;;4.10;2.13;;;24.10;99.90;;;;;;5061036;28;20093;-68
2023/07/07 10:29:42;;;;;;;4.25;1.73;;;24.00;99.90;;;;;;5076342;28;20040;-69
2023/07/07 10:32:21;;;;;;;3.25;1.38;;;24.40;99.90;;;;;;5075858;28;20047;-68
2023/07/07 10:34:51;;;;;;;3.47;1.55;;;24.20;99.90;;;;;;5050111;28;20124;-68
2023/07/07 10:37:21;;;;;;;5.43;1.45;;;24.40;99.90;;;;;;5055682;28;20464;-68
2023/07/07 10:39:58;;;;;;;9.60;1.73;;;24.40;99.90;;;;;;5068257;28;20479;-68
2023/07/07 10:42:26;;;;;;;5.28;1.48;;;24.70;99.90;;;;;;5069871;28;20113;-68
2023/07/07 10:44:55;;;;;;;3.13;1.55;;;24.60;99.90;;;;;;5047824;28;20131;-68
2023/07/07 10:47:41;;;;;;;2.92;1.63;;;24.40;99.90;;;;;;5048489;28;20052;-68
2023/07/07 10:50:14;;;;;;;4.80;1.60;;;24.40;99.90;;;;;;5062150;28;20044;-69
2023/07/07 10:52:45;;;;;;;5.10;1.60;;;24.70;99.90;;;;;;5064862;28;20827;-68
2023/07/07 10:55:35;;;;;;;6.10;2.03;;;24.70;99.90;;;;;;5048029;28;20765;-68
2023/07/07 10:58:19;;;;;;;4.82;1.40;;;24.80;99.90;;;;;;5045242;28;20087;-68
2023/07/07 11:01:01;;;;;;;5.83;1.70;;;25.00;99.90;;;;;;5047059;28;20055;-68
2023/07/07 11:04:07;;;;;;;4.70;1.58;;;24.70;99.90;;;;;;5046530;28;20040;-68
2023/07/07 11:06:52;;;;;;;4.63;1.77;;;24.90;99.90;;;;;;5045128;28;20052;-68
2023/07/07 11:09:41;;;;;;;4.57;1.58;;;24.70;99.90;;;;;;5048486;28;20048;-68
2023/07/07 11:12:26;;;;;;;3.72;1.65;;;24.90;99.90;;;;;;5061288;28;20043;-68
2023/07/07 11:15:15;;;;;;;4.53;1.58;;;25.30;99.90;;;;;;5046488;28;20051;-68
2023/07/07 11:17:43;;;;;;;4.30;1.60;;;25.60;99.90;;;;;;5048046;28;20056;-68
2023/07/07 11:20:51;;;;;;;3.67;1.48;;;25.30;99.90;;;;;;5065639;28;20052;-68
2023/07/07 11:23:44;;;;;;;4.28;1.50;;;25.10;99.90;;;;;;5060215;28;20116;-69
2023/07/07 11:26:25;;;;;;;3.38;1.30;;;25.50;99.90;;;;;;5063390;28;20080;-69
2023/07/07 11:29:06;;;;;;;3.42;1.50;;;25.50;99.90;;;;;;5046715;28;20036;-69
2023/07/07 11:31:50;;;;;;;5.90;2.08;;;25.40;99.90;;;;;;5064859;28;20055;-68
2023/07/07 11:34:28;;;;;;;3.78;1.17;;;25.60;99.90;;;;;;5044407;28;20086;-68
2023/07/07 11:37:00;;;;;;;2.80;1.60;;;25.70;99.90;;;;;;5048141;28;20044;-69
2023/07/07 11:39:43;;;;;;;4.13;1.42;;;25.20;99.90;;;;;;5045267;28;20044;-69
2023/07/07 11:42:33;;;;;;;3.42;1.35;;;25.30;99.90;;;;;;5053822;28;20514;-68
2023/07/07 11:45:10;;;;;;;3.75;1.63;;;25.30;99.90;;;;;;5068573;28;20047;-68
2023/07/07 11:48:06;;;;;;;3.72;2.25;;;25.60;99.90;;;;;;5064142;28;20049;-68
2023/07/07 11:50:47;;;;;;;5.07;1.63;;;25.70;99.90;;;;;;5047406;28;20050;-69
2023/07/07 11:53:47;;;;;;;4.28;1.30;;;25.50;99.90;;;;;;5045725;28;20139;-68
2023/07/07 11:56:33;;;;;;;4.43;1.60;;;25.60;99.90;;;;;;5048043;28;20508;-68
2023/07/07 11:59:32;;;;;;;3.38;1.38;;;25.50;99.90;;;;;;5049215;28;20508;-68
2023/07/07 12:02:00;;;;;;;3.83;2.05;;;25.50;99.90;;;;;;5044199;28;20088;-68
2023/07/07 12:04:39;;;;;;;4.05;1.58;;;25.60;99.90;;;;;;5056377;28;20048;-69
2023/07/07 12:07:14;;;;;;;5.30;1.52;;;25.50;99.90;;;;;;5041975;28;20049;-69
2023/07/07 12:09:48;;;;;;;5.20;2.33;;;25.50;99.90;;;;;;5025777;28;20048;-68
2023/07/07 12:12:25;;;;;;;4.53;2.00;;;25.60;99.90;;;;;;5063628;28;20053;-68
2023/07/07 12:15:00;;;;;;;3.55;1.42;;;25.30;99.90;;;;;;5037738;28;20045;-68
2023/07/07 12:17:33;;;;;;;4.90;1.58;;;25.60;99.90;;;;;;5041019;28;20052;-68
2023/07/07 12:20:23;;;;;;;4.32;1.90;;;25.50;99.90;;;;;;5046373;28;20053;-68
2023/07/07 12:22:50;;;;;;;2.95;1.70;;;25.50;99.90;;;;;;5040465;28;20059;-69
2023/07/07 12:25:28;;;;;;;5.72;1.85;;;25.40;99.90;;;;;;5047683;28;20048;-68
2023/07/07 12:27:54;;;;;;;2.92;1.55;;;26.50;99.90;;;;;;5062927;28;20043;-68
2023/07/07 12:30:27;;;;;;;3.42;1.40;;;25.50;99.90;;;;;;5065607;28;20062;-68
2023/07/07 12:32:54;;;;;;;5.07;1.90;;;25.50;99.90;;;;;;5046637;28;20051;-68
2023/07/07 12:35:36;;;;;;;3.08;1.35;;;25.60;99.90;;;;;;5060834;28;20076;-69
2023/07/07 12:38:19;;;;;;;5.85;1.50;;;25.90;99.90;;;;;;5042305;28;20055;-69
2023/07/07 12:40:45;;;;;;;5.47;1.83;;;25.60;99.90;;;;;;5073893;28;20032;-69
2023/07/07 12:43:20;;;;;;;3.60;1.60;;;25.70;99.90;;;;;;5034091;28;20068;-68
2023/07/07 12:45:47;;;;;;;3.47;1.38;;;25.70;99.90;;;;;;5055620;28;20044;-68
2023/07/07 12:48:19;;;;;;;2.50;1.25;;;25.70;99.90;;;;;;5070610;28;20582;-69
2023/07/07 12:50:45;;;;;;;3.67;1.35;;;25.70;99.90;;;;;;5071703;28;20040;-68
2023/07/07 12:53:36;;;;;;;4.68;1.75;;;25.70;99.90;;;;;;5048326;28;20060;-69
2023/07/07 12:56:07;;;;;;;6.03;1.73;;;25.70;99.90;;;;;;5066541;28;20048;-69
2023/07/07 12:58:36;;;;;;;3.30;1.77;;;26.20;99.90;;;;;;5047342;28;20047;-69
2023/07/07 13:01:06;;;;;;;3.25;1.80;;;27.10;99.90;;;;;;5032544;28;20131;-69
2023/07/07 13:03:31;;;;;;;3.30;1.38;;;25.60;99.90;;;;;;5066696;28;20037;-69
2023/07/07 13:05:59;;;;;;;6.90;2.33;;;25.90;99.90;;;;;;5047118;28;20073;-69
2023/07/07 13:08:39;;;;;;;4.50;1.65;;;27.30;99.90;;;;;;5068137;28;20047;-69
2023/07/07 13:11:06;;;;;;;4.10;1.30;;;26.00;99.90;;;;;;5043479;28;20046;-69
2023/07/07 13:13:37;;;;;;;6.90;1.35;;;25.70;99.90;;;;;;5039654;28;20573;-69
2023/07/07 13:16:04;;;;;;;4.53;1.40;;;25.60;99.90;;;;;;5064687;28;20491;-69
2023/07/07 13:18:30;;;;;;;2.83;1.38;;;25.90;99.90;;;;;;5062505;28;20089;-69
2023/07/07 13:20:58;;;;;;;4.43;1.83;;;25.90;99.90;;;;;;5070600;28;20542;-69
2023/07/07 13:23:37;;;;;;;3.30;1.48;;;25.90;99.90;;;;;;5066464;28;20484;-69
2023/07/07 13:26:04;;;;;;;4.38;1.30;;;25.90;99.90;;;;;;5067740;28;20052;-69
2023/07/07 13:28:30;;;;;;;3.85;1.70;;;27.10;99.90;;;;;;5068200;28;20080;-69
2023/07/07 13:30:58;;;;;;;4.20;1.60;;;25.90;99.90;;;;;;5041845;28;20063;-69